Time;durP1;ratioP1;P1;durP2;ratioP2;P2;SDS_P1;SDS_P2;PMS_P1;PMS_P2;Temp;Humidity;BMP_temperature;BMP_pressure;BME280_temperature;BME280_humidity;BME280_pressure;Samples;Min_cycle;Max_cycle;Signal;HPM_P1;HPM_P2
2020/12/10 00:01:51;;;;;;;;;;;;;;;-1.76;85.71;97576.64;1632753;87;26357;-84
2020/12/10 00:04:40;;;;;;;;;;;;;;;-1.79;85.73;97579.30;1577996;88;37823;-84
2020/12/10 00:07:26;;;;;;;;;;;;;;;-1.83;85.72;97575.17;1633993;87;20283;-84
2020/12/10 00:10:13;;;;;;;;;;;;;;;-1.87;85.74;97573.17;1642643;86;25292;-84
2020/12/10 00:13:00;;;;;;;;;;;;;;;-1.88;85.73;97575.78;1631370;87;22212;-83
2020/12/10 00:15:51;;;;;;;;;;;;;;;-1.89;85.74;97575.38;1607705;87;27180;-84
2020/12/10 00:18:38;;;;;;;;;;;;;;;-1.89;85.73;97576.22;1612204;86;24625;-84
2020/12/10 00:21:28;;;;;;;;;;;;;;;-1.88;85.74;97572.77;1614274;87;20316;-84
2020/12/10 00:24:15;;;;;;;;;;;;;;;-1.88;85.76;97570.66;1632930;86;25932;-83
2020/12/10 00:27:02;;;;;;;;;;;;;;;-1.89;85.78;97574.94;1633095;87;22159;-83
2020/12/10 00:29:48;;;;;;;;;;;;;;;-1.90;85.79;97572.42;1577239;87;26401;-83
2020/12/10 00:32:35;;;;;;;;;;;;;;;-1.91;85.80;97574.14;1573461;89;24632;-83
2020/12/10 00:35:21;;;;;;;;;;;;;;;-1.89;85.80;97575.38;1633788;87;20194;-83
2020/12/10 00:38:08;;;;;;;;;;;;;;;-1.90;85.82;97567.30;1632381;87;24999;-83
2020/12/10 00:40:55;;;;;;;;;;;;;;;-1.91;85.84;97563.08;1598587;87;21955;-83
2020/12/10 00:43:45;;;;;;;;;;;;;;;-1.92;85.85;97562.23;1612252;87;26671;-83
2020/12/10 00:46:32;;;;;;;;;;;;;;;-1.90;85.86;97559.60;1632831;87;24584;-83
2020/12/10 00:49:20;;;;;;;;;;;;;;;-1.89;85.86;97553.59;1633928;87;20287;-83
2020/12/10 00:52:07;;;;;;;;;;;;;;;-1.87;85.88;97550.53;1632862;87;24876;-83
2020/12/10 00:54:57;;;;;;;;;;;;;;;-1.88;85.89;97548.86;1613564;86;22397;-83
2020/12/10 00:57:44;;;;;;;;;;;;;;;-1.89;85.90;97545.89;1633076;87;26142;-83
2020/12/10 01:00:31;;;;;;;;;;;;;;;-1.90;85.93;97545.50;1632051;87;24690;-83
2020/12/10 01:03:17;;;;;;;;;;;;;;;-1.90;85.93;97537.37;1634026;87;20568;-83
2020/12/10 01:06:05;;;;;;;;;;;;;;;-1.93;85.95;97545.62;1655519;86;24696;-82
2020/12/10 01:08:52;;;;;;;;;;;;;;;-1.96;85.95;97541.86;1634600;87;22136;-83
2020/12/10 01:11:39;;;;;;;;;;;;;;;-1.96;85.96;97544.42;1657090;84;26793;-83
2020/12/10 01:14:25;;;;;;;;;;;;;;;-1.95;85.95;97541.81;1610722;87;24633;-83
2020/12/10 01:17:12;;;;;;;;;;;;;;;-1.94;85.96;97539.66;1634076;87;20414;-83
2020/12/10 01:19:58;;;;;;;;;;;;;;;-1.93;85.97;97537.92;1632546;87;24984;-83
2020/12/10 01:22:45;;;;;;;;;;;;;;;-1.90;85.98;97539.09;1630892;87;22216;-83
2020/12/10 01:25:32;;;;;;;;;;;;;;;-1.88;86.00;97545.85;1635016;86;26115;-83
2020/12/10 01:28:18;;;;;;;;;;;;;;;-1.88;86.01;97540.72;1632752;86;24832;-83
2020/12/10 01:31:05;;;;;;;;;;;;;;;-1.85;86.01;97539.77;1620261;87;20318;-84
2020/12/10 01:33:52;;;;;;;;;;;;;;;-1.88;86.04;97532.19;1608291;88;24941;-83
2020/12/10 01:36:38;;;;;;;;;;;;;;;-1.90;86.03;97524.98;1633654;87;23159;-83
2020/12/10 01:39:24;;;;;;;;;;;;;;;-1.93;86.03;97523.83;1607040;88;26364;-84
2020/12/10 01:42:11;;;;;;;;;;;;;;;-1.99;86.03;97521.47;1607449;87;24588;-83
2020/12/10 01:44:57;;;;;;;;;;;;;;;-2.00;86.06;97519.80;1611398;88;20300;-83
2020/12/10 01:47:44;;;;;;;;;;;;;;;-1.98;86.04;97516.74;1633274;86;24878;-83
2020/12/10 01:50:30;;;;;;;;;;;;;;;-1.98;86.05;97512.90;1611077;88;22132;-83
2020/12/10 01:53:17;;;;;;;;;;;;;;;-1.98;86.05;97511.17;1634244;87;27044;-83
2020/12/10 01:56:03;;;;;;;;;;;;;;;-1.98;86.06;97511.62;1609823;88;24699;-83
2020/12/10 01:58:50;;;;;;;;;;;;;;;-1.99;86.05;97512.06;1609789;88;20299;-83
2020/12/10 02:01:37;;;;;;;;;;;;;;;-1.98;86.06;97509.89;1634414;87;25059;-84
2020/12/10 02:04:23;;;;;;;;;;;;;;;-1.99;86.07;97509.94;1615182;87;22065;-84
2020/12/10 02:07:10;;;;;;;;;;;;;;;-2.01;86.08;97502.29;1606532;88;26172;-84
2020/12/10 02:09:57;;;;;;;;;;;;;;;-2.04;86.07;97497.73;1617318;87;24612;-84
2020/12/10 02:12:44;;;;;;;;;;;;;;;-2.05;86.08;97497.33;1611647;88;20611;-83
2020/12/10 02:15:33;;;;;;;;;;;;;;;-2.09;86.08;97491.48;1610599;88;24930;-84
2020/12/10 02:18:20;;;;;;;;;;;;;;;-2.11;86.08;97499.22;1611978;88;23012;-84
2020/12/10 02:21:06;;;;;;;;;;;;;;;-2.11;86.08;97495.81;1628899;87;26234;-84
2020/12/10 02:23:52;;;;;;;;;;;;;;;-2.15;86.09;97490.41;1608810;88;24815;-84
2020/12/10 02:26:39;;;;;;;;;;;;;;;-2.16;86.09;97498.54;1631649;87;20294;-84
2020/12/10 02:29:16;;;;;;;;;;;;;;;-2.20;86.10;97495.70;1615220;87;24918;-84
2020/12/10 02:32:02;;;;;;;;;;;;;;;-2.22;86.11;97488.50;1615080;87;22161;-84
2020/12/10 02:34:49;;;;;;;;;;;;;;;-2.23;86.11;97493.22;1607026;87;26128;-84
2020/12/10 02:37:34;;;;;;;;;;;;;;;-2.25;86.12;97486.50;1613393;87;24586;-84
2020/12/10 02:40:22;;;;;;;;;;;;;;;-2.25;86.11;97487.78;1613109;87;20285;-84
2020/12/10 02:43:10;;;;;;;;;;;;;;;-2.28;86.12;97483.58;1637966;86;24907;-84
2020/12/10 02:45:57;;;;;;;;;;;;;;;-2.26;86.12;97475.85;1609743;87;22307;-85
2020/12/10 02:48:44;;;;;;;;;;;;;;;-2.24;86.12;97463.39;1638260;86;26236;-85
2020/12/10 02:51:31;;;;;;;;;;;;;;;-2.24;86.14;97465.95;1615342;87;25521;-84
2020/12/10 02:54:17;;;;;;;;;;;;;;;-2.22;86.15;97461.59;1635456;86;20455;-83
2020/12/10 02:57:04;;;;;;;;;;;;;;;-2.22;86.16;97460.31;1619196;87;24920;-84
2020/12/10 02:59:50;;;;;;;;;;;;;;;-2.22;86.17;97460.31;1614325;87;22162;-84
2020/12/10 03:02:36;;;;;;;;;;;;;;;-2.22;86.19;97459.47;1633281;86;28110;-84
2020/12/10 03:05:23;;;;;;;;;;;;;;;-2.26;86.18;97458.75;1612135;87;24581;-83
2020/12/10 03:08:09;;;;;;;;;;;;;;;-2.25;86.20;97456.59;1638511;86;20509;-83
2020/12/10 03:10:56;;;;;;;;;;;;;;;-2.26;86.19;97448.95;1646482;86;24386;-83
2020/12/10 03:13:42;;;;;;;;;;;;;;;-2.26;86.21;97451.06;1638795;86;22218;-83
2020/12/10 03:16:28;;;;;;;;;;;;;;;-2.27;86.20;97439.58;1628450;87;26452;-83
2020/12/10 03:19:15;;;;;;;;;;;;;;;-2.26;86.20;97436.14;1590189;87;24584;-83
2020/12/10 03:22:02;;;;;;;;;;;;;;;-2.31;86.22;97445.27;1627059;86;20271;-85
2020/12/10 03:24:49;;;;;;;;;;;;;;;-2.37;86.22;97447.20;1639378;86;24966;-84
2020/12/10 03:27:36;;;;;;;;;;;;;;;-2.39;86.23;97444.68;1643515;86;21929;-83
2020/12/10 03:30:22;;;;;;;;;;;;;;;-2.42;86.25;97446.08;1633974;86;25872;-83
2020/12/10 03:33:12;;;;;;;;;;;;;;;-2.39;86.23;97443.84;1615849;87;24588;-83
2020/12/10 03:36:00;;;;;;;;;;;;;;;-2.38;86.22;97439.11;1618260;87;20472;-83
2020/12/10 03:38:47;;;;;;;;;;;;;;;-2.37;86.23;97431.39;1604054;87;24792;-83
2020/12/10 03:41:33;;;;;;;;;;;;;;;-2.38;86.25;97438.67;1613259;87;22240;-83
2020/12/10 03:44:19;;;;;;;;;;;;;;;-2.43;86.26;97434.16;1618411;87;27172;-83
2020/12/10 03:47:05;;;;;;;;;;;;;;;-2.46;86.26;97434.72;1619666;87;24631;-83
2020/12/10 03:49:52;;;;;;;;;;;;;;;-2.48;86.28;97432.20;1614614;87;20276;-85
2020/12/10 03:52:39;;;;;;;;;;;;;;;-2.49;86.27;97429.23;1610895;87;24925;-83
2020/12/10 03:55:25;;;;;;;;;;;;;;;-2.48;86.28;97424.95;1613629;87;22214;-84
2020/12/10 03:58:12;;;;;;;;;;;;;;;-2.47;86.29;97432.59;1628335;87;26462;-83
2020/12/10 04:00:59;;;;;;;;;;;;;;;-2.48;86.28;97421.95;1614826;87;24667;-84
2020/12/10 04:03:48;;;;;;;;;;;;;;;-2.49;86.28;97416.87;1636718;86;20294;-83
2020/12/10 04:06:42;;;;;;;;;;;;;;;-2.53;86.30;97419.99;1626758;87;25902;-84
2020/12/10 04:09:26;;;;;;;;;;;;;;;-2.54;86.30;97419.59;1626047;87;22158;-83
2020/12/10 04:12:13;;;;;;;;;;;;;;;-2.55;86.30;97427.72;1626909;87;27010;-84
2020/12/10 04:14:59;;;;;;;;;;;;;;;-2.55;86.31;97420.48;1615584;87;24635;-84
2020/12/10 04:17:45;;;;;;;;;;;;;;;-2.55;86.29;97414.92;1636776;86;20491;-84
2020/12/10 04:20:32;;;;;;;;;;;;;;;-2.53;86.31;97416.16;1588911;87;24417;-84
2020/12/10 04:23:18;;;;;;;;;;;;;;;-2.51;86.31;97413.55;1626090;87;22995;-84
2020/12/10 04:26:04;;;;;;;;;;;;;;;-2.50;86.33;97410.91;1610100;87;26204;-84
2020/12/10 04:28:51;;;;;;;;;;;;;;;-2.51;86.33;97419.51;1621633;87;24677;-84
2020/12/10 04:31:37;;;;;;;;;;;;;;;-2.53;86.35;97414.88;1647726;86;20598;-83
2020/12/10 04:34:24;;;;;;;;;;;;;;;-2.55;86.36;97413.63;1617844;87;25136;-83
2020/12/10 04:37:10;;;;;;;;;;;;;;;-2.56;86.37;97418.36;1626455;88;22159;-83
2020/12/10 04:39:59;;;;;;;;;;;;;;;-2.54;86.37;97410.19;1622343;88;25989;-82
2020/12/10 04:42:47;;;;;;;;;;;;;;;-2.52;86.36;97405.03;1638426;86;24792;-82
2020/12/10 04:45:33;;;;;;;;;;;;;;;-2.51;86.37;97405.42;1618869;87;20409;-83
2020/12/10 04:48:22;;;;;;;;;;;;;;;-2.51;86.39;97402.86;1616122;87;24929;-83
2020/12/10 04:51:08;;;;;;;;;;;;;;;-2.54;86.38;97401.23;1611892;87;22292;-83
2020/12/10 04:53:55;;;;;;;;;;;;;;;-2.52;86.39;97397.78;1605311;87;25927;-82
2020/12/10 04:56:42;;;;;;;;;;;;;;;-2.52;86.42;97399.06;1636003;87;24268;-83
2020/12/10 04:59:28;;;;;;;;;;;;;;;-2.53;86.40;97391.83;1612982;87;20289;-83
2020/12/10 05:02:18;;;;;;;;;;;;;;;-2.54;86.43;97385.02;1641506;86;25103;-83
2020/12/10 05:05:03;;;;;;;;;;;;;;;-2.57;86.43;97383.42;1580764;87;22023;-83
2020/12/10 05:07:50;;;;;;;;;;;;;;;-2.58;86.42;97377.06;1616691;87;26213;-82
2020/12/10 05:10:37;;;;;;;;;;;;;;;-2.55;86.44;97374.38;1617802;87;24588;-82
2020/12/10 05:13:23;;;;;;;;;;;;;;;-2.52;86.44;97374.29;1640788;86;20339;-82
2020/12/10 05:16:10;;;;;;;;;;;;;;;-2.52;86.44;97361.48;1611971;87;24826;-83
2020/12/10 05:18:57;;;;;;;;;;;;;;;-2.52;86.46;97362.77;1603392;87;22497;-82
2020/12/10 05:21:43;;;;;;;;;;;;;;;-2.53;86.46;97361.09;1644392;86;26687;-82
2020/12/10 05:24:30;;;;;;;;;;;;;;;-2.52;86.47;97371.73;1637748;86;24810;-83
2020/12/10 05:27:16;;;;;;;;;;;;;;;-2.54;86.46;97360.25;1627114;87;20309;-83
2020/12/10 05:30:04;;;;;;;;;;;;;;;-2.52;86.49;97360.20;1615136;87;24905;-83
2020/12/10 05:32:54;;;;;;;;;;;;;;;-2.54;86.51;97359.41;1613399;87;22309;-83
2020/12/10 05:35:40;;;;;;;;;;;;;;;-2.54;86.52;97354.29;1638915;87;26131;-83
2020/12/10 05:38:28;;;;;;;;;;;;;;;-2.56;86.52;97354.78;1628287;87;25421;-82
2020/12/10 05:41:15;;;;;;;;;;;;;;;-2.57;86.52;97355.69;1633866;87;20312;-82
2020/12/10 05:43:50;;;;;;;;;;;;;;;-2.58;86.53;97353.57;1616408;87;24922;-83
2020/12/10 05:46:38;;;;;;;;;;;;;;;-2.56;86.54;97354.78;1609778;87;22169;-83
2020/12/10 05:49:24;;;;;;;;;;;;;;;-2.56;86.53;97357.34;1616080;87;27079;-83
2020/12/10 05:52:11;;;;;;;;;;;;;;;-2.58;86.55;97352.73;1640889;86;24562;-83
2020/12/10 05:54:58;;;;;;;;;;;;;;;-2.55;86.55;97350.05;1584846;88;20281;-83
2020/12/10 05:57:46;;;;;;;;;;;;;;;-2.53;86.56;97353.41;1637208;86;24883;-83
2020/12/10 06:00:32;;;;;;;;;;;;;;;-2.53;86.56;97355.97;1568127;87;22038;-83
2020/12/10 06:03:20;;;;;;;;;;;;;;;-2.54;86.57;97351.28;1612567;87;26133;-82
2020/12/10 06:06:06;;;;;;;;;;;;;;;-2.52;86.57;97352.96;1639172;86;24877;-82
2020/12/10 06:08:58;;;;;;;;;;;;;;;-2.49;86.58;97353.68;1632786;87;20550;-82
2020/12/10 06:11:44;;;;;;;;;;;;;;;-2.51;86.60;97352.92;1614778;87;25833;-83
2020/12/10 06:14:30;;;;;;;;;;;;;;;-2.51;86.61;97353.36;1641595;86;22169;-82
2020/12/10 06:17:16;;;;;;;;;;;;;;;-2.51;86.61;97345.67;1618521;87;26187;-83
2020/12/10 06:20:03;;;;;;;;;;;;;;;-2.50;86.62;97345.60;1635960;87;24706;-83
2020/12/10 06:22:49;;;;;;;;;;;;;;;-2.52;86.62;97344.00;1599587;87;20318;-83
2020/12/10 06:25:37;;;;;;;;;;;;;;;-2.49;86.64;97351.13;1613284;87;24919;-83
2020/12/10 06:28:25;;;;;;;;;;;;;;;-2.47;86.65;97344.67;1616256;87;23032;-82
2020/12/10 06:31:13;;;;;;;;;;;;;;;-2.48;86.65;97343.83;1638383;86;26718;-83
2020/12/10 06:34:06;;;;;;;;;;;;;;;-2.45;86.65;97347.55;1633963;87;25856;-83
2020/12/10 06:36:52;;;;;;;;;;;;;;;-2.41;86.65;97351.70;1592718;87;20639;-82
2020/12/10 06:39:39;;;;;;;;;;;;;;;-2.37;86.65;97346.01;1615901;87;24818;-83
2020/12/10 06:42:25;;;;;;;;;;;;;;;-2.36;86.66;97348.52;1608255;87;22171;-83
2020/12/10 06:45:12;;;;;;;;;;;;;;;-2.40;86.68;97346.13;1631710;87;26132;-83
2020/12/10 06:47:59;;;;;;;;;;;;;;;-2.44;86.70;97344.55;1604898;87;24695;-83
2020/12/10 06:50:48;;;;;;;;;;;;;;;-2.47;86.68;97342.95;1621370;87;20193;-83
2020/12/10 06:53:35;;;;;;;;;;;;;;;-2.48;86.69;97343.83;1632199;87;24928;-83
2020/12/10 06:56:25;;;;;;;;;;;;;;;-2.50;86.69;97344.32;1616712;87;22987;-82
2020/12/10 06:59:12;;;;;;;;;;;;;;;-2.53;86.68;97334.20;1637641;86;26054;-83
2020/12/10 07:02:02;;;;;;;;;;;;;;;-2.54;86.70;97336.36;1608552;87;25608;-82
2020/12/10 07:04:50;;;;;;;;;;;;;;;-2.54;86.69;97336.36;1632605;86;20280;-82
2020/12/10 07:07:38;;;;;;;;;;;;;;;-2.50;86.68;97334.52;1631407;87;24987;-83
2020/12/10 07:10:25;;;;;;;;;;;;;;;-2.47;86.68;97335.70;1604760;87;23008;-82
2020/12/10 07:13:12;;;;;;;;;;;;;;;-2.45;86.69;97337.75;1632918;87;27082;-82
2020/12/10 07:15:59;;;;;;;;;;;;;;;-2.42;86.68;97333.81;1612653;87;24632;-82
2020/12/10 07:18:50;;;;;;;;;;;;;;;-2.40;86.69;97335.41;1614141;87;20310;-83
2020/12/10 07:21:37;;;;;;;;;;;;;;;-2.41;86.71;97336.77;1631637;87;23952;-83
2020/12/10 07:24:24;;;;;;;;;;;;;;;-2.42;86.71;97333.81;1608985;87;22032;-83
2020/12/10 07:27:14;;;;;;;;;;;;;;;-2.40;86.72;97330.29;1632830;87;26401;-81
2020/12/10 07:30:02;;;;;;;;;;;;;;;-2.41;86.71;97331.20;1606705;87;24754;-82
2020/12/10 07:32:51;;;;;;;;;;;;;;;-2.34;86.71;97328.79;1608439;87;20300;-83
2020/12/10 07:35:40;;;;;;;;;;;;;;;-2.33;86.71;97329.19;1633588;87;24895;-83
2020/12/10 07:38:28;;;;;;;;;;;;;;;-2.34;86.73;97327.51;1611870;87;22269;-81
2020/12/10 07:41:15;;;;;;;;;;;;;;;-2.32;86.74;97319.77;1633780;87;26992;-83
2020/12/10 07:44:01;;;;;;;;;;;;;;;-2.31;86.74;97312.48;1615006;87;26236;-84
2020/12/10 07:46:50;;;;;;;;;;;;;;;-2.31;86.74;97312.05;1632931;87;20279;-83
2020/12/10 07:49:36;;;;;;;;;;;;;;;-2.32;86.73;97301.84;1615206;87;25815;-83
2020/12/10 07:52:22;;;;;;;;;;;;;;;-2.32;86.74;97303.96;1632830;87;22989;-83
2020/12/10 07:55:11;;;;;;;;;;;;;;;-2.29;86.74;97296.63;1609023;87;26112;-83
2020/12/10 07:58:03;;;;;;;;;;;;;;;-2.31;86.75;97299.23;1633731;87;24780;-83
2020/12/10 08:00:52;;;;;;;;;;;;;;;-2.36;86.75;97293.45;1642222;86;20269;-83
2020/12/10 08:03:38;;;;;;;;;;;;;;;-2.34;86.76;97292.92;1632328;86;24968;-83
2020/12/10 08:06:25;;;;;;;;;;;;;;;-2.32;86.76;97291.59;1610780;87;22128;-82
2020/12/10 08:09:17;;;;;;;;;;;;;;;-2.31;86.75;97297.95;1632230;86;27182;-81
2020/12/10 08:12:07;;;;;;;;;;;;;;;-2.29;86.77;97287.66;1640904;86;23817;-82
2020/12/10 08:14:57;;;;;;;;;;;;;;;-2.29;86.76;97287.18;1636141;86;20302;-82
2020/12/10 08:17:46;;;;;;;;;;;;;;;-2.28;86.74;97285.02;1636531;86;24929;-82
2020/12/10 08:20:33;;;;;;;;;;;;;;;-2.26;86.75;97282.41;1609630;87;22239;-82
2020/12/10 08:23:21;;;;;;;;;;;;;;;-2.24;86.76;97278.91;1635223;86;26165;-82
2020/12/10 08:26:07;;;;;;;;;;;;;;;-2.23;86.76;97280.99;1607111;87;24595;-82
2020/12/10 08:28:53;;;;;;;;;;;;;;;-2.19;86.75;97274.44;1631663;87;20304;-82
2020/12/10 08:31:39;;;;;;;;;;;;;;;-2.16;86.77;97282.44;1619850;87;24434;-82
2020/12/10 08:34:26;;;;;;;;;;;;;;;-2.17;86.76;97278.20;1612661;87;22164;-83
2020/12/10 08:37:15;;;;;;;;;;;;;;;-2.14;86.77;97278.94;1642925;86;27089;-83
2020/12/10 08:40:01;;;;;;;;;;;;;;;-2.11;86.76;97273.69;1634968;87;25762;-83
2020/12/10 08:42:47;;;;;;;;;;;;;;;-2.07;86.77;97291.05;1619703;87;20759;-82
2020/12/10 08:45:34;;;;;;;;;;;;;;;-2.09;86.79;97280.48;1620145;87;24927;-82
2020/12/10 08:48:21;;;;;;;;;;;;;;;-2.07;86.77;97277.43;1628412;87;22325;-82
2020/12/10 08:51:07;;;;;;;;;;;;;;;-2.05;86.77;97273.90;1614389;87;27267;-82
2020/12/10 08:53:57;;;;;;;;;;;;;;;-2.05;86.77;97267.49;1609419;87;24593;-82
2020/12/10 08:56:55;;;;;;;;;;;;;;;-2.01;86.77;97269.48;1643553;86;20708;-82
2020/12/10 08:59:42;;;;;;;;;;;;;;;-1.96;86.77;97271.41;1638247;86;24912;-82
2020/12/10 09:02:29;;;;;;;;;;;;;;;-1.86;86.75;97271.47;1633800;86;23102;-82
2020/12/10 09:05:17;;;;;;;;;;;;;;;-1.80;86.76;97264.83;1641093;86;26159;-82
2020/12/10 09:08:05;;;;;;;;;;;;;;;-1.78;86.77;97264.30;1615387;86;24572;-82
2020/12/10 09:10:55;;;;;;;;;;;;;;;-1.75;86.81;97267.59;1623650;87;20677;-82
2020/12/10 09:13:42;;;;;;;;;;;;;;;-1.72;86.80;97267.45;1614398;87;24981;-83
2020/12/10 09:16:29;;;;;;;;;;;;;;;-1.66;86.79;97261.25;1613378;87;24245;-83
2020/12/10 09:19:17;;;;;;;;;;;;;;;-1.66;86.80;97261.25;1643284;86;26212;-82
2020/12/10 09:22:04;;;;;;;;;;;;;;;-1.62;86.79;97261.50;1622499;87;25605;-82
2020/12/10 09:24:55;;;;;;;;;;;;;;;-1.63;86.81;97261.56;1635151;86;20271;-83
2020/12/10 09:27:51;;;;;;;;;;;;;;;-1.61;86.78;97257.21;1634488;86;24928;-83
2020/12/10 09:30:40;;;;;;;;;;;;;;;-1.60;86.78;97249.91;1618189;87;22178;-83
2020/12/10 09:33:27;;;;;;;;;;;;;;;-1.59;86.78;97248.58;1636948;86;26209;-83
2020/12/10 09:36:14;;;;;;;;;;;;;;;-1.55;86.76;97245.42;1645445;86;24484;-83
2020/12/10 09:39:01;;;;;;;;;;;;;;;-1.58;86.75;97237.87;1614232;87;20287;-84
2020/12/10 09:41:48;;;;;;;;;;;;;;;-1.56;86.73;97238.62;1614444;87;24910;-84
2020/12/10 09:44:36;;;;;;;;;;;;;;;-1.60;86.73;97233.23;1634347;87;22116;-82
2020/12/10 09:47:23;;;;;;;;;;;;;;;-1.62;86.73;97227.33;1616183;87;26363;-82
2020/12/10 09:50:21;;;;;;;;;;;;;;;-1.66;86.71;97231.75;1604518;87;25461;-82
2020/12/10 09:53:11;;;;;;;;;;;;;;;-1.65;86.67;97230.86;1606315;87;20291;-82
2020/12/10 09:59:14;;;;;;;;;;;;;;;-1.64;86.63;97228.69;1615190;87;22668;-82
2020/12/10 10:02:00;;;;;;;;;;;;;;;-1.63;86.60;97225.20;1614092;87;27127;-83
2020/12/10 10:04:50;;;;;;;;;;;;;;;-1.65;86.57;97224.90;1610278;87;25459;-82
2020/12/10 10:07:41;;;;;;;;;;;;;;;-1.67;86.56;97227.52;1642666;87;20457;-83
2020/12/10 10:10:29;;;;;;;;;;;;;;;-1.67;86.55;97226.23;1619923;87;24936;-83
2020/12/10 10:13:16;;;;;;;;;;;;;;;-1.72;86.54;97220.45;1614758;87;22191;-82
2020/12/10 10:16:02;;;;;;;;;;;;;;;-1.73;86.51;97222.19;1638066;86;26289;-82
2020/12/10 10:18:51;;;;;;;;;;;;;;;-1.71;86.48;97215.72;1625632;87;24634;-82
2020/12/10 10:21:37;;;;;;;;;;;;;;;-1.71;86.46;97217.00;1614959;87;20670;-83
2020/12/10 10:24:26;;;;;;;;;;;;;;;-1.76;86.46;97211.23;1642254;86;24687;-82
2020/12/10 10:27:13;;;;;;;;;;;;;;;-1.74;86.43;97211.98;1637057;86;22228;-83
2020/12/10 10:30:01;;;;;;;;;;;;;;;-1.69;86.41;97208.78;1611020;87;26262;-83
2020/12/10 10:32:47;;;;;;;;;;;;;;;-1.65;86.40;97206.50;1634207;86;24810;-83
2020/12/10 10:35:34;;;;;;;;;;;;;;;-1.63;86.37;97205.97;1613101;87;20420;-83
2020/12/10 10:38:23;;;;;;;;;;;;;;;-1.58;86.37;97207.09;1602064;88;25084;-82
2020/12/10 10:41:15;;;;;;;;;;;;;;;-1.54;86.37;97195.80;1640405;86;22236;-82
2020/12/10 10:44:01;;;;;;;;;;;;;;;-1.53;86.38;97195.74;1608530;87;26516;-82
2020/12/10 10:46:51;;;;;;;;;;;;;;;-1.54;86.38;97194.06;1629898;86;24577;-82
2020/12/10 10:49:38;;;;;;;;;;;;;;;-1.52;86.36;97195.27;1588561;88;20335;-82
2020/12/10 10:52:34;;;;;;;;;;;;;;;;;;;;;
2020/12/10 10:55:13;;;;;;;;;;;;;;;-1.51;86.33;97194.38;1616893;86;22007;-82
2020/12/10 10:57:59;;;;;;;;;;;;;;;-1.49;86.31;97195.16;1602358;87;26351;-82
2020/12/10 11:00:46;;;;;;;;;;;;;;;-1.46;86.30;97183.47;1636293;87;24611;-81
2020/12/10 11:03:33;;;;;;;;;;;;;;;-1.44;86.29;97186.37;1612376;87;20477;-82
2020/12/10 11:06:20;;;;;;;;;;;;;;;-1.43;86.29;97173.09;1632528;86;25119;-84
2020/12/10 11:09:06;;;;;;;;;;;;;;;-1.43;86.27;97173.93;1608489;87;23054;-83
2020/12/10 11:11:54;;;;;;;;;;;;;;;-1.41;86.26;97179.81;1630156;87;25169;-82
2020/12/10 11:14:41;;;;;;;;;;;;;;;-1.40;86.26;97180.64;1613633;87;25510;-82
2020/12/10 11:17:29;;;;;;;;;;;;;;;-1.41;86.25;97172.11;1610406;87;20279;-82
2020/12/10 11:20:17;;;;;;;;;;;;;;;-1.42;86.24;97173.48;1629241;86;24950;-83
2020/12/10 11:23:04;;;;;;;;;;;;;;;-1.41;86.22;97169.99;1618583;87;22227;-82
2020/12/10 11:25:51;;;;;;;;;;;;;;;-1.41;86.21;97159.28;1637448;86;26177;-82
2020/12/10 11:28:38;;;;;;;;;;;;;;;-1.40;86.20;97160.13;1614840;87;25501;-81
2020/12/10 11:31:26;;;;;;;;;;;;;;;-1.36;86.19;97158.63;1614684;87;20371;-82
2020/12/10 11:34:14;;;;;;;;;;;;;;;-1.28;86.17;97160.44;1640062;86;24925;-82
2020/12/10 11:37:00;;;;;;;;;;;;;;;-1.22;86.16;97159.34;1638482;86;22140;-82
2020/12/10 11:39:46;;;;;;;;;;;;;;;-1.16;86.16;97168.06;1611831;87;26152;-83
2020/12/10 11:42:32;;;;;;;;;;;;;;;-1.18;86.16;97162.14;1638432;86;25802;-83
2020/12/10 11:45:19;;;;;;;;;;;;;;;-1.13;86.16;97172.20;1625559;87;20283;-83
2020/12/10 11:48:05;;;;;;;;;;;;;;;-1.09;86.16;97173.77;1588787;88;25440;-84
2020/12/10 11:50:52;;;;;;;;;;;;;;;-1.09;86.17;97169.91;1634138;86;22157;-82
2020/12/10 11:53:39;;;;;;;;;;;;;;;-1.08;86.15;97170.27;1608998;87;26153;-82
2020/12/10 11:56:25;;;;;;;;;;;;;;;-1.12;86.14;97164.45;1639535;86;24541;-82
2020/12/10 11:59:15;;;;;;;;;;;;;;;-1.16;86.14;97164.66;1609274;87;20479;-82
2020/12/10 12:02:01;;;;;;;;;;;;;;;-1.18;86.11;97161.31;1643873;86;24680;-83
2020/12/10 12:04:49;;;;;;;;;;;;;;;-1.18;86.10;97158.74;1611229;87;22128;-83
2020/12/10 12:07:35;;;;;;;;;;;;;;;-1.17;86.08;97155.28;1636199;86;26139;-82
2020/12/10 12:10:22;;;;;;;;;;;;;;;-1.19;86.06;97151.48;1626402;87;24627;-84
2020/12/10 12:13:09;;;;;;;;;;;;;;;-1.19;86.05;97148.09;1615324;87;20312;-84
2020/12/10 12:15:58;;;;;;;;;;;;;;;-1.20;86.02;97143.41;1614442;87;25061;-84
2020/12/10 12:18:45;;;;;;;;;;;;;;;-1.18;85.99;97144.18;1612879;86;21959;-84
2020/12/10 12:21:33;;;;;;;;;;;;;;;-1.19;86.00;97143.79;1619192;87;26154;-83
2020/12/10 12:24:19;;;;;;;;;;;;;;;-1.14;85.96;97149.55;1631749;86;24781;-84
2020/12/10 12:26:54;;;;;;;;;;;;;;;-1.10;85.96;97155.41;1615474;87;20272;-83
2020/12/10 12:29:40;;;;;;;;;;;;;;;-1.11;85.95;97155.02;1615497;87;25147;-84
2020/12/10 12:32:27;;;;;;;;;;;;;;;-1.15;85.94;97154.33;1638789;86;22384;-83
2020/12/10 12:35:14;;;;;;;;;;;;;;;-1.12;85.93;97155.47;1613475;88;26259;-84
2020/12/10 12:38:03;;;;;;;;;;;;;;;-1.10;85.92;97152.84;1612696;88;25491;-84
2020/12/10 12:40:49;;;;;;;;;;;;;;;-1.11;85.91;97144.75;1606870;88;20409;-85
2020/12/10 12:43:24;;;;;;;;;;;;;;;-1.09;85.89;97145.53;1626536;87;24860;-85
2020/12/10 12:46:12;;;;;;;;;;;;;;;-1.08;85.88;97145.89;1599079;87;21914;-85
2020/12/10 12:48:58;;;;;;;;;;;;;;;-1.05;85.88;97145.77;1613028;88;26148;-84
2020/12/10 12:51:45;;;;;;;;;;;;;;;-1.00;85.87;97143.37;1613504;88;24789;-84
2020/12/10 12:54:33;;;;;;;;;;;;;;;-1.01;85.86;97141.70;1610777;88;20388;-84
2020/12/10 12:57:20;;;;;;;;;;;;;;;-1.05;85.87;97135.50;1598253;87;24763;-84
2020/12/10 13:00:06;;;;;;;;;;;;;;;-1.09;85.87;97138.62;1618753;88;22243;-84
2020/12/10 13:02:53;;;;;;;;;;;;;;;-1.07;85.85;97138.57;1599248;86;26357;-84
2020/12/10 13:05:39;;;;;;;;;;;;;;;-1.03;85.83;97137.53;1610527;88;24720;-83
2020/12/10 13:08:25;;;;;;;;;;;;;;;-0.98;85.81;97135.14;1634429;87;20513;-84
2020/12/10 13:11:13;;;;;;;;;;;;;;;-0.89;85.82;97130.06;1590464;88;25687;-83
2020/12/10 13:14:00;;;;;;;;;;;;;;;-0.85;85.81;97134.14;1647581;86;22224;-83
2020/12/10 13:16:47;;;;;;;;;;;;;;;-0.83;85.82;97143.91;1634109;86;27086;-84
2020/12/10 13:19:22;;;;;;;;;;;;;;;-0.80;85.84;97144.20;1610819;88;25525;-84
2020/12/10 13:22:09;;;;;;;;;;;;;;;-0.73;85.82;97149.45;1633035;87;20270;-84
2020/12/10 13:24:56;;;;;;;;;;;;;;;-0.65;85.83;97143.05;1615523;88;25029;-83
2020/12/10 13:27:46;;;;;;;;;;;;;;;-0.56;85.84;97146.95;1604087;88;22143;-84
2020/12/10 13:30:33;;;;;;;;;;;;;;;-0.42;85.82;97154.39;1592576;88;26398;-84
2020/12/10 13:33:22;;;;;;;;;;;;;;;-0.42;85.85;97150.53;1602024;87;24619;-85
2020/12/10 13:36:08;;;;;;;;;;;;;;;-0.36;85.86;97150.70;1600737;87;20300;-85
2020/12/10 13:38:55;;;;;;;;;;;;;;;-0.30;85.87;97145.72;1595691;88;24903;-84
2020/12/10 13:41:42;;;;;;;;;;;;;;;-0.29;85.86;97149.96;1631886;87;23039;-84
2020/12/10 13:44:33;;;;;;;;;;;;;;;-0.28;85.86;97155.05;1602755;88;26226;-84
2020/12/10 13:47:20;;;;;;;;;;;;;;;-0.33;85.88;97162.14;1633987;86;24546;-84
2020/12/10 13:50:13;;;;;;;;;;;;;;;-0.24;85.87;97163.42;1603787;87;20461;-83
2020/12/10 13:53:00;;;;;;;;;;;;;;;-0.17;85.85;97162.24;1628755;87;24885;-83
2020/12/10 13:55:52;;;;;;;;;;;;;;;-0.04;85.85;97160.73;1601894;87;21954;-84
2020/12/10 13:58:38;;;;;;;;;;;;;;;0.03;85.83;97161.28;1614677;87;26316;-84
2020/12/10 14:01:16;;;;;;;;;;;;;;;0.05;85.82;97160.77;1607535;88;25523;-83
2020/12/10 14:03:50;;;;;;;;;;;;;;;-0.02;85.83;97161.50;1596667;87;20383;-84
2020/12/10 14:06:37;;;;;;;;;;;;;;;0.00;85.82;97164.84;1612582;88;24946;-84
2020/12/10 14:09:26;;;;;;;;;;;;;;;0.06;85.81;97168.83;1624504;87;22143;-83
2020/12/10 14:12:13;;;;;;;;;;;;;;;0.04;85.80;97166.36;1606378;87;25643;-83
2020/12/10 14:15:00;;;;;;;;;;;;;;;0.03;85.77;97170.28;1613508;88;25628;-83
2020/12/10 14:17:47;;;;;;;;;;;;;;;-0.02;85.79;97164.08;1631071;87;20276;-84
2020/12/10 14:20:33;;;;;;;;;;;;;;;-0.06;85.77;97165.97;1591873;88;23690;-83
2020/12/10 14:23:19;;;;;;;;;;;;;;;0.06;85.72;97164.52;1607631;88;22245;-83
2020/12/10 14:26:06;;;;;;;;;;;;;;;0.21;85.68;97166.37;1637761;86;26782;-83
2020/12/10 14:28:53;;;;;;;;;;;;;;;0.27;85.66;97167.33;1633719;87;24719;-84
2020/12/10 14:31:40;;;;;;;;;;;;;;;0.31;85.64;97165.02;1611954;88;20326;-83
2020/12/10 14:34:27;;;;;;;;;;;;;;;0.43;85.62;97174.32;1648235;86;24757;-85